WetterOnline ( https://www.wetteronline.de )

Wetter aktuell Frankfurt (Oder)

Aktuelles Wetter: Manschnow (16m)

6-stündlich | Neueste Meldungen
Ortszeit Temperatur Wetter
Di, 05.07. 14:00 26.0° C fast wolkenlos
Di, 05.07. 8:00 17.1° C wolkenlos
Di, 05.07. 2:00 11.6° C fast wolkenlos
Mo, 04.07. 20:00 23.8° C wolkenlos
Mo, 04.07. 14:00 24.8° C wolkig
Mo, 04.07. 8:00 19.8° C wolkenlos
Mo, 04.07. 2:00 19.1° C leicht bewölkt
So, 03.07. 20:00 26.1° C wolkenlos
Ortszeit Temperatur Wetter
Di, 05.07. 16:30 26.2° C leicht bewölkt
Di, 05.07. 16:20 26.2° C leicht bewölkt
Di, 05.07. 16:10 25.0° C fast wolkenlos
Di, 05.07. 16:00 25.7° C fast wolkenlos
Di, 05.07. 15:50 25.7° C fast wolkenlos
Di, 05.07. 15:40 26.4° C leicht bewölkt
Di, 05.07. 15:30 25.2° C wolkig
Di, 05.07. 15:00 24.7° C wolkig
Di, 05.07. 14:30 24.0° C leicht bewölkt
Di, 05.07. 14:00 26.0° C fast wolkenlos
Di, 05.07. 13:30 25.5° C fast wolkenlos
Ortszeit Relative Feuchte Sichtweite
Di, 05.07. 14:00 35% 40 km
Di, 05.07. 8:00 68% 45 km
Di, 05.07. 2:00 89% 55 km
Mo, 04.07. 20:00 39% >70 km
Mo, 04.07. 14:00 42% >70 km
Mo, 04.07. 8:00 77% 45 km
Mo, 04.07. 2:00 68% 60 km
So, 03.07. 20:00 45% 60 km
Ortszeit Relative Feuchte Sichtweite
Di, 05.07. 16:30 36% >70 km
Di, 05.07. 16:20 36% -
Di, 05.07. 16:10 37% -
Di, 05.07. 16:00 36% 60 km
Di, 05.07. 15:50 36% -
Di, 05.07. 15:40 36% -
Di, 05.07. 15:30 36% 45 km
Di, 05.07. 15:00 39% 55 km
Di, 05.07. 14:30 36% 55 km
Di, 05.07. 14:00 35% 40 km
Di, 05.07. 13:30 38% 50 km
Ortszeit Niederschlagsmenge Niederschlagsart
Di, 05.07. 14:00 0.0 l/m2 in 6 Std. -
Di, 05.07. 8:00 0.0 l/m2 in 12 Std. -
Di, 05.07. 2:00 0.0 l/m2 in 6 Std. -
Mo, 04.07. 20:00 0.0 l/m2 in 12 Std. -
Mo, 04.07. 14:00 0.0 l/m2 in 6 Std. -
Mo, 04.07. 8:00 3 l/m2 in 12 Std. Regen
Mo, 04.07. 2:00 0.0 l/m2 in 6 Std. -
So, 03.07. 20:00 0.0 l/m2 in 12 Std. -
Ortszeit Niederschlagsmenge Niederschlagsart
Di, 05.07. 16:30 0.0 l/m2 in 1 Std. -
Di, 05.07. 16:20 keine Meldung -
Di, 05.07. 16:10 keine Meldung -
Di, 05.07. 16:00 0.0 l/m2 in 1 Std. -
Di, 05.07. 15:50 keine Meldung -
Di, 05.07. 15:40 keine Meldung -
Di, 05.07. 15:30 0.0 l/m2 in 1 Std. -
Di, 05.07. 15:00 0.0 l/m2 in 1 Std. -
Di, 05.07. 14:30 0.0 l/m2 in 1 Std. -
Di, 05.07. 14:00 0.0 l/m2 in 1 Std. -
Di, 05.07. 13:30 0.0 l/m2 in 1 Std. -
Ortszeit Stärke Spitze Richtung
km/h Bft. km/h Grad Sektor
Di, 05.07. 14:00 14 3 32 290° W
Di, 05.07. 8:00 4 1 11 290° W
Di, 05.07. 2:00 2 1 19 140° SO
Mo, 04.07. 20:00 7 2 36 310° NW
Mo, 04.07. 14:00 14 3 29 270° W
Mo, 04.07. 8:00 9 2 22 320° NW
Mo, 04.07. 2:00 11 2 22 140° SO
So, 03.07. 20:00 11 2 36 80° O
Ortszeit Stärke Spitze Richtung
km/h Bft. km/h Grad Sektor
Di, 05.07. 16:30 17 3 31 280° W
Di, 05.07. 16:20 17 3 - 280° W
Di, 05.07. 16:10 13 3 - 300° NW
Di, 05.07. 16:00 17 3 30 290° W
Di, 05.07. 15:50 17 3 - 290° W
Di, 05.07. 15:40 13 3 - 310° NW
Di, 05.07. 15:30 11 2 29 330° NW
Di, 05.07. 15:00 14 3 32 300° NW
Di, 05.07. 14:30 14 3 29 320° NW
Di, 05.07. 14:00 14 3 29 290° W
Di, 05.07. 13:30 9 2 28 290° W
Ortszeit Untergrenze Bedeckung Gattung
total tief tief mittel hoch
Di, 05.07. 14:00 2100 m 1/8 1/8 - - -
Di, 05.07. 8:00 - 0/8 0/8 - - -
Di, 05.07. 2:00 9000 m 1/8 0/8 - - -
Mo, 04.07. 20:00 - 0/8 0/8 - - -
Mo, 04.07. 14:00 1800 m 5/8 5/8 - - -
Mo, 04.07. 8:00 - 0/8 0/8 - - -
Mo, 04.07. 2:00 2700 m 5/8 1/8 - - -
So, 03.07. 20:00 - 0/8 0/8 - - -
Ortszeit Bedeckungsgrad in Achtel und Wolkenuntergrenze
Di, 05.07. 16:30 2(2400m)
Di, 05.07. 16:20 2(2400m)
Di, 05.07. 16:10 1
Di, 05.07. 16:00 1(2100m)
Di, 05.07. 15:50 1(2100m)
Di, 05.07. 15:40 3
Di, 05.07. 15:30 5(2100m) 6(2400m)
Di, 05.07. 15:00 2(2100m) 5(2400m)
Di, 05.07. 14:30 3(2400m)
Di, 05.07. 14:00 1(2100m)
Di, 05.07. 13:30 1(2100m)
Ortszeit Luftdruck NN (hPa) Tendenz (hPa in 3 Std.)
Di, 05.07. 14:00 1020 - 0,6
Di, 05.07. 8:00 1020 + 1,1
Di, 05.07. 2:00 1019 + 0,4
Mo, 04.07. 20:00 1017 - 0,1
Mo, 04.07. 14:00 1018 - 0,1
Mo, 04.07. 8:00 1017 + 1,8
Mo, 04.07. 2:00 1014 - 0,9
So, 03.07. 20:00 1016 - 1,1
Ortszeit Luftdruck NN (hPa) Tendenz (hPa in 3 Std.)
Di, 05.07. 16:30 1019 - 0,6
Di, 05.07. 16:20 1019 keine Meldung
Di, 05.07. 16:10 1019 keine Meldung
Di, 05.07. 16:00 1019 - 0,8
Di, 05.07. 15:50 1019 keine Meldung
Di, 05.07. 15:40 1019 keine Meldung
Di, 05.07. 15:30 1019 - 0,7
Di, 05.07. 15:00 1019 - 0,6
Di, 05.07. 14:30 1019 - 0,8
Di, 05.07. 14:00 1020 - 0,6
Di, 05.07. 13:30 1020 - 0,5
Ortszeit Schneehöhe (cm)
Di, 05.07. 14:00 0
Di, 05.07. 8:00 0
Di, 05.07. 2:00 0
Mo, 04.07. 20:00 0
Mo, 04.07. 14:00 0
Mo, 04.07. 8:00 0
Mo, 04.07. 2:00 0
So, 03.07. 20:00 0
Ortszeit Schneehöhe (cm)
Di, 05.07. 16:30 0
Di, 05.07. 16:20 0
Di, 05.07. 16:10 0
Di, 05.07. 16:00 0
Di, 05.07. 15:50 0
Di, 05.07. 15:40 0
Di, 05.07. 15:30 0
Di, 05.07. 15:00 0
Di, 05.07. 14:30 0
Di, 05.07. 14:00 0
Di, 05.07. 13:30 0
Link zu dieser Seite / Seite empfehlen

Das Wetter in ...